Keswick, IA (50136)

9:11 AM CDT on May 27, 2017 (GMT -0500)
hop yard | | Change Station
Active Advisory: Dense Fog Advisory

Elev 856 ft 41.45 °N, 92.34 °W | Updated 2 seconds ago

Fog
Fog
64.4 °F
Feels Like 64.4 °F
N
2.0
Wind Variable Wind from NNW

Today
High -- | Low -- °F
--% Chance of Precip.
Yesterday
High -- | Low -- °F
Precip. -- in
Pressure 29.89 in
Visibility 1.2 miles
Clouds Overcast 100 ft
Dew Point 61 °F
Humidity 88%
Rainfall 0.00 in
Snow Depth Not available.
5:40 AM 8:32 PM
Waxing Crescent, 5% visible
METAR KOOA 271355Z AUTO 10007KT 1 1/4SM BR OVC001 16/16 A2989 RMK AO2 T01610158
Pressure 29.89 in
Visibility 1.2 miles
Clouds Overcast 100 ft
Dew Point 61 °F
Humidity 88%
Rainfall 0.00 in
Snow Depth Not available.
5:40 AM 8:32 PM
Waxing Crescent, 5% visible
METAR KOOA 271355Z AUTO 10007KT 1 1/4SM BR OVC001 16/16 A2989 RMK AO2 T01610158

Get Your Daily Forecast Email!

Thanks for signing up!

Be on the lookout for a verification email in your inbox.

You'll start receiving severe weather alerts in your inbox..

×

10-Day Weather Forecast

Almanac

Astronomy

May. 27, 2017 Rise Set
Actual Time
Civil Twilight
Nautical Twilight
Astronomical Twilight
Moon
Length of Visible Light
Length of Day
Tomorrow will be .
, % of the Moon is Illuminated

Today's Extremes

State Highs State Lows

Community

WunderPhotos

Category 6

Welcome to Category 6. This is the collective home for Weather Underground's featured writeups by Dr. Jeff Masters (right), Bob Henson (left), Chris Burt, and other regular contributors.

Nearby

Air Quality

  Air Quality AQ Index Pollutant
Not available.

Snow Depth

Station Depth Elevation

Earthquake Activity

City Distance Mag. Time & Date
Minimum magnitude displayed is 2.5.

Coastal Water Temperatures

Place Temperature

Stations

Nearby Weather Stations

Station Location Temp. Windchill Dew Point Humidity Wind Precip. Elev Updated Type
                   

Watches & Warnings

Dense Fog Advisory
Issued: 7:50 AM CDT May. 27, 2017 – National Weather Service

... Dense fog advisory now in effect until 10 am CDT this
morning...

* visibility... 1/4 mile or less.

* Timing... now through 10 am CDT this morning. Look for improving
visibilties by 10 am CDT.

* Impacts... travel will be impacted. Poor visibility will result
in hazardous driving conditions and longer travel times this
morning.

Precautionary/preparedness actions...

A dense fog advisory means visibilities will frequently be
reduced to less than one quarter mile. If driving, slow down, use
your headlights, and leave plenty of distance ahead of you.



12